Time;durP1;ratioP1;P1;durP2;ratioP2;P2;SDS_P1;SDS_P2;PMS_P1;PMS_P2;Temp;Humidity;BMP_temperature;BMP_pressure;BME280_temperature;BME280_humidity;BME280_pressure;Samples;Min_cycle;Max_cycle;Signal;HPM_P1;HPM_P2
2022/11/04 00:01:43;;;;;;;6.07;4.00;;;11.40;99.90;;;;;;5062431;28;20060;-63
2022/11/04 00:04:11;;;;;;;2.65;2.45;;;11.30;99.90;;;;;;5055445;28;20049;-62
2022/11/04 00:06:37;;;;;;;2.77;2.27;;;11.30;99.90;;;;;;5059009;28;20154;-61
2022/11/04 00:09:04;;;;;;;4.38;2.25;;;11.20;99.90;;;;;;5060687;28;20045;-61
2022/11/04 00:14:15;;;;;;;2.78;1.85;;;11.10;99.90;;;;;;5059993;28;20053;-62
2022/11/04 00:19:26;;;;;;;2.72;1.42;;;11.10;99.90;;;;;;5046214;28;20084;-62
2022/11/04 00:30:11;;;;;;;1.40;0.70;;;10.90;99.90;;;;;;4953794;28;20047;-62
2022/11/04 00:35:34;;;;;;;2.90;0.80;;;10.80;99.90;;;;;;4935470;29;20043;-61
2022/11/04 00:38:00;;;;;;;1.48;0.70;;;10.80;99.90;;;;;;4930867;29;20059;-62
2022/11/04 00:40:25;;;;;;;0.40;0.40;;;10.70;99.90;;;;;;4931946;29;20051;-61
2022/11/04 00:42:51;;;;;;;1.67;0.57;;;10.70;99.90;;;;;;4933948;29;20125;-61
2022/11/04 00:45:17;;;;;;;1.20;0.60;;;10.70;99.90;;;;;;4928939;29;20059;-62
2022/11/04 00:47:42;;;;;;;1.02;0.55;;;10.70;99.90;;;;;;4931735;29;20493;-61
2022/11/04 00:50:08;;;;;;;1.05;0.60;;;10.60;99.90;;;;;;4933716;29;20051;-61
2022/11/04 00:52:34;;;;;;;1.85;0.60;;;10.60;99.90;;;;;;4946579;29;20048;-62
2022/11/04 00:54:59;;;;;;;3.72;0.70;;;10.60;99.90;;;;;;4935036;29;20047;-61
2022/11/04 00:57:25;;;;;;;1.00;0.45;;;10.60;99.90;;;;;;4949747;29;20131;-61
2022/11/04 00:59:50;;;;;;;1.40;0.52;;;10.50;99.90;;;;;;4928769;29;20148;-61
2022/11/04 01:02:16;;;;;;;2.67;0.60;;;10.50;99.90;;;;;;4930619;29;20063;-61
2022/11/04 01:04:42;;;;;;;2.03;0.60;;;10.50;99.90;;;;;;4932185;29;20064;-61
2022/11/04 01:07:07;;;;;;;1.80;0.60;;;10.40;99.90;;;;;;4959838;28;20132;-60
2022/11/04 01:09:33;;;;;;;0.60;0.50;;;10.40;99.90;;;;;;4966314;28;20078;-62
2022/11/04 01:11:59;;;;;;;1.77;0.43;;;10.40;99.90;;;;;;5038313;28;20057;-62
2022/11/04 01:14:24;;;;;;;1.67;0.60;;;10.40;99.90;;;;;;5048040;28;20049;-62
2022/11/04 01:16:50;;;;;;;2.03;0.55;;;10.40;99.90;;;;;;5053537;28;20041;-62
2022/11/04 01:19:17;;;;;;;0.98;0.55;;;10.30;99.90;;;;;;5051378;28;20032;-61
2022/11/04 01:21:43;;;;;;;1.58;0.70;;;10.30;99.90;;;;;;5053912;28;20120;-61
2022/11/04 01:24:08;;;;;;;3.47;0.65;;;10.30;99.90;;;;;;5050998;28;20041;-62
2022/11/04 01:26:35;;;;;;;1.90;0.93;;;10.30;99.90;;;;;;5050222;28;20037;-61
2022/11/04 01:29:01;;;;;;;1.67;1.10;;;10.30;99.90;;;;;;5049898;28;20094;-61
2022/11/04 01:31:29;;;;;;;4.88;1.35;;;10.30;99.90;;;;;;5053141;28;20072;-62
2022/11/04 01:33:55;;;;;;;;;;;10.30;99.90;;;;;;5056754;28;20397;-61
2022/11/04 01:36:21;;;;;;;2.03;1.30;;;10.40;99.90;;;;;;5061249;28;19920;-62
2022/11/04 01:38:47;;;;;;;2.72;1.50;;;10.30;99.90;;;;;;5053059;28;20041;-61
2022/11/04 01:41:19;;;;;;;3.20;1.73;;;10.30;99.90;;;;;;5051249;28;20490;-61
2022/11/04 01:43:54;;;;;;;3.72;1.90;;;10.30;99.90;;;;;;5047362;28;20040;-61
2022/11/04 01:46:38;;;;;;;2.80;1.83;;;10.30;99.90;;;;;;5058420;28;20052;-61
2022/11/04 01:49:30;;;;;;;4.75;2.30;;;10.30;99.90;;;;;;5049238;28;20080;-60
2022/11/04 01:52:04;;;;;;;3.25;2.30;;;10.40;99.90;;;;;;5051924;28;20124;-61
2022/11/04 01:54:30;;;;;;;4.50;2.92;;;10.40;99.90;;;;;;5045484;28;20048;-61
2022/11/04 01:56:59;;;;;;;4.18;3.20;;;10.50;99.90;;;;;;5023635;28;20048;-62
2022/11/04 01:59:29;;;;;;;4.43;3.22;;;10.50;99.90;;;;;;5042343;28;20121;-62
2022/11/04 02:01:55;;;;;;;5.00;4.07;;;10.50;99.90;;;;;;5025411;28;20053;-62
2022/11/04 02:04:27;;;;;;;5.82;4.38;;;10.60;99.90;;;;;;5041593;28;20041;-61
2022/11/04 02:07:05;;;;;;;5.93;5.32;;;10.60;99.90;;;;;;5026458;28;20041;-61
2022/11/04 02:09:32;;;;;;;5.35;4.85;;;10.70;99.90;;;;;;5041838;28;20051;-62
2022/11/04 02:14:45;;;;;;;6.82;5.85;;;10.70;99.90;;;;;;5041514;28;20056;-61
2022/11/04 02:17:17;;;;;;;6.85;6.03;;;10.70;99.90;;;;;;5043992;28;20393;-61
2022/11/04 02:20:12;;;;;;;9.27;6.30;;;10.70;99.90;;;;;;5037674;28;20053;-61
2022/11/04 02:23:25;;;;;;;8.98;6.72;;;10.70;99.90;;;;;;5043959;28;20090;-61
2022/11/04 02:26:15;;;;;;;9.23;6.90;;;10.70;99.90;;;;;;5043850;28;20571;-62
2022/11/04 02:28:49;;;;;;;7.57;6.78;;;10.70;99.90;;;;;;5042159;28;20397;-62
2022/11/04 02:31:24;;;;;;;10.77;7.00;;;10.70;99.90;;;;;;5039857;28;20056;-62
2022/11/04 02:34:01;;;;;;;7.93;7.05;;;10.70;99.90;;;;;;5042417;28;20141;-62
2022/11/04 02:36:44;;;;;;;9.00;7.03;;;10.80;99.90;;;;;;5046013;28;20068;-62
2022/11/04 02:39:30;;;;;;;7.68;6.88;;;10.70;99.90;;;;;;5048893;28;20059;-63
2022/11/04 02:42:28;;;;;;;5.13;4.70;;;10.70;99.90;;;;;;5035579;28;20036;-62
2022/11/04 02:45:09;;;;;;;5.70;5.00;;;10.70;99.90;;;;;;4995299;28;20054;-63
2022/11/04 02:47:38;;;;;;;5.97;5.32;;;10.60;99.90;;;;;;4990271;28;20510;-64
2022/11/04 02:50:12;;;;;;;6.72;6.07;;;10.60;99.90;;;;;;4990816;28;20066;-64
2022/11/04 02:52:48;;;;;;;7.78;7.03;;;10.70;99.90;;;;;;4986163;28;20479;-64
2022/11/04 02:55:40;;;;;;;8.10;7.30;;;10.70;99.90;;;;;;4991136;28;20712;-64
2022/11/04 02:58:13;;;;;;;7.80;7.10;;;10.60;99.90;;;;;;4995260;28;20042;-64
2022/11/04 03:00:42;;;;;;;8.25;7.40;;;10.60;99.90;;;;;;4993781;28;20665;-64
2022/11/04 03:03:16;;;;;;;7.70;6.90;;;10.60;99.90;;;;;;4998390;28;20141;-64
2022/11/04 03:05:46;;;;;;;7.85;6.00;;;10.60;99.90;;;;;;4996717;28;20483;-64
2022/11/04 03:08:18;;;;;;;4.78;4.28;;;10.60;99.90;;;;;;4993226;28;20154;-64
2022/11/04 03:10:50;;;;;;;5.43;4.10;;;10.60;99.90;;;;;;5002595;28;20046;-64
2022/11/04 03:13:18;;;;;;;4.95;4.03;;;10.50;99.90;;;;;;5004430;28;20495;-64
2022/11/04 03:15:52;;;;;;;4.78;3.75;;;10.50;99.90;;;;;;5000760;28;20145;-64
2022/11/04 03:18:28;;;;;;;3.30;3.00;;;10.50;99.90;;;;;;4997148;28;20132;-64
2022/11/04 03:20:57;;;;;;;3.90;3.28;;;10.50;99.90;;;;;;4999398;28;20045;-63
2022/11/04 03:23:23;;;;;;;4.00;2.78;;;10.40;99.90;;;;;;5064859;28;20041;-63
2022/11/04 03:25:53;;;;;;;5.75;2.83;;;10.40;99.90;;;;;;5068040;28;20102;-63
2022/11/04 03:28:34;;;;;;;4.28;2.58;;;10.40;99.90;;;;;;5064016;28;20044;-63
2022/11/04 03:31:03;;;;;;;6.05;2.50;;;10.40;99.90;;;;;;5067549;28;20044;-63
2022/11/04 03:33:49;;;;;;;3.78;2.00;;;10.30;99.90;;;;;;5065792;28;20094;-63
2022/11/04 03:36:16;;;;;;;4.88;2.25;;;10.30;99.90;;;;;;5063684;28;20045;-64
2022/11/04 03:38:41;;;;;;;3.80;1.70;;;10.30;99.90;;;;;;5061525;28;20119;-63
2022/11/04 03:41:16;;;;;;;2.70;1.48;;;10.30;99.90;;;;;;5057342;28;20158;-64
2022/11/04 03:43:42;;;;;;;2.95;1.20;;;10.30;99.90;;;;;;5051456;28;20071;-63
2022/11/04 03:46:08;;;;;;;2.08;1.17;;;10.20;99.90;;;;;;5056056;28;20048;-63
2022/11/04 03:48:34;;;;;;;3.60;1.25;;;10.20;99.90;;;;;;5051172;28;20104;-63
2022/11/04 03:51:00;;;;;;;2.72;1.15;;;10.10;99.90;;;;;;5055783;28;20051;-62
2022/11/04 03:53:28;;;;;;;2.38;1.20;;;10.10;99.90;;;;;;5059348;28;20037;-63
2022/11/04 03:56:28;;;;;;;0.98;0.80;;;10.10;99.90;;;;;;5060048;28;20040;-63
2022/11/04 03:59:11;;;;;;;1.80;1.00;;;10.10;99.90;;;;;;5055157;28;20067;-63
2022/11/04 04:01:52;;;;;;;1.27;1.00;;;10.10;99.90;;;;;;5050352;28;20352;-62
2022/11/04 04:04:34;;;;;;;1.17;0.70;;;10.00;99.90;;;;;;5035531;28;20044;-62
2022/11/04 04:07:28;;;;;;;1.95;1.00;;;10.00;99.90;;;;;;5054175;28;20060;-63
2022/11/04 04:13:01;;;;;;;2.05;0.60;;;9.90;99.90;;;;;;5054987;28;20052;-62
2022/11/04 04:15:33;;;;;;;0.98;0.88;;;10.00;99.90;;;;;;5037109;28;20083;-62
2022/11/04 04:18:02;;;;;;;2.85;0.90;;;10.00;99.90;;;;;;5048457;28;20090;-62
2022/11/04 04:20:34;;;;;;;3.75;1.50;;;10.00;99.90;;;;;;5034951;28;20045;-62
2022/11/04 04:29:01;;;;;;;0.75;0.73;;;10.00;99.90;;;;;;5059793;28;20044;-63
2022/11/04 04:34:14;;;;;;;2.83;1.20;;;9.90;99.90;;;;;;5054678;28;20460;-62
2022/11/04 04:36:48;;;;;;;2.00;1.00;;;9.90;99.90;;;;;;5065614;28;20123;-62
2022/11/04 04:44:59;;;;;;;4.05;1.30;;;9.90;99.90;;;;;;5058346;28;20084;-62
2022/11/04 04:47:25;;;;;;;;;;;9.90;99.90;;;;;;5046983;28;20052;-62
2022/11/04 04:49:53;;;;;;;2.72;1.20;;;9.90;99.90;;;;;;5055009;28;19921;-62
2022/11/04 04:52:19;;;;;;;2.90;1.20;;;9.90;99.90;;;;;;5043533;28;20040;-62
2022/11/04 04:54:45;;;;;;;4.43;1.23;;;9.80;99.90;;;;;;5059055;28;20489;-61
2022/11/04 04:57:10;;;;;;;3.28;1.30;;;9.70;99.90;;;;;;5060020;28;20061;-61
2022/11/04 04:59:36;;;;;;;2.13;1.05;;;9.80;99.90;;;;;;5056187;28;20535;-62
2022/11/04 05:02:02;;;;;;;4.85;1.30;;;9.80;99.90;;;;;;5047497;28;20124;-62
2022/11/04 05:04:28;;;;;;;1.95;1.00;;;9.80;99.90;;;;;;5055987;28;20053;-62
2022/11/04 05:06:53;;;;;;;2.05;1.10;;;9.80;99.90;;;;;;5054667;28;20557;-61
2022/11/04 05:09:19;;;;;;;2.85;1.40;;;9.80;99.90;;;;;;5058349;28;20045;-62
2022/11/04 05:11:45;;;;;;;2.97;1.45;;;9.80;99.90;;;;;;5061321;28;20042;-62
2022/11/04 05:14:10;;;;;;;4.20;1.73;;;9.80;99.90;;;;;;5060611;28;20033;-62
2022/11/04 05:16:36;;;;;;;1.65;1.00;;;9.80;99.90;;;;;;5039521;28;20045;-63
2022/11/04 05:19:01;;;;;;;1.10;1.00;;;9.80;99.90;;;;;;5060373;28;20072;-63
2022/11/04 05:21:27;;;;;;;2.05;1.02;;;9.80;99.90;;;;;;5045065;28;20052;-62
2022/11/04 05:23:53;;;;;;;4.07;0.90;;;9.70;99.90;;;;;;5052112;28;20043;-62
2022/11/04 05:26:18;;;;;;;2.13;1.25;;;9.60;99.90;;;;;;5056816;28;20482;-63
2022/11/04 05:28:44;;;;;;;1.67;1.05;;;9.60;99.90;;;;;;5051187;28;20120;-62
2022/11/04 05:31:09;;;;;;;2.78;1.40;;;9.50;99.90;;;;;;5053678;28;20390;-62
2022/11/04 05:33:35;;;;;;;2.97;1.30;;;9.40;99.90;;;;;;5056268;28;20048;-62
2022/11/04 05:36:09;;;;;;;3.20;1.52;;;9.30;99.90;;;;;;5054343;28;20513;-62
2022/11/04 05:38:34;;;;;;;3.80;1.30;;;9.30;99.90;;;;;;5061618;28;20063;-62
2022/11/04 05:41:00;;;;;;;4.30;1.27;;;9.20;99.90;;;;;;5053880;28;20045;-62
2022/11/04 05:43:26;;;;;;;3.63;1.30;;;9.20;99.90;;;;;;5061198;28;20044;-62
2022/11/04 05:45:51;;;;;;;2.50;1.40;;;9.20;99.90;;;;;;5038667;28;20041;-60
2022/11/04 05:48:17;;;;;;;4.13;1.50;;;9.20;99.90;;;;;;5052877;28;20033;-61
2022/11/04 05:50:42;;;;;;;1.85;1.33;;;9.10;99.90;;;;;;5043260;28;20051;-62
2022/11/04 05:53:08;;;;;;;2.45;1.35;;;9.00;99.90;;;;;;5056837;28;20037;-62
2022/11/04 05:55:33;;;;;;;2.22;1.30;;;9.00;99.90;;;;;;5032239;28;20052;-62
2022/11/04 05:57:59;;;;;;;2.70;1.30;;;8.90;99.90;;;;;;5043086;28;20124;-62
2022/11/04 06:00:26;;;;;;;2.35;1.13;;;8.90;99.90;;;;;;5044665;28;20048;-62
2022/11/04 06:02:52;;;;;;;2.95;1.40;;;8.90;99.90;;;;;;5045023;28;20056;-60
2022/11/04 06:05:18;;;;;;;3.20;1.20;;;8.80;99.90;;;;;;5044519;28;20059;-62
2022/11/04 06:07:43;;;;;;;4.57;1.58;;;8.80;99.90;;;;;;5027238;28;20045;-62
2022/11/04 06:10:09;;;;;;;2.50;1.25;;;8.80;99.90;;;;;;5010850;28;20055;-61
2022/11/04 06:12:35;;;;;;;2.35;1.27;;;8.70;99.90;;;;;;5026967;28;20387;-61
2022/11/04 06:15:01;;;;;;;1.52;1.10;;;8.70;99.90;;;;;;5026861;28;20044;-62
2022/11/04 06:17:26;;;;;;;4.32;1.13;;;8.70;99.90;;;;;;5043656;28;20041;-61
2022/11/04 06:19:52;;;;;;;1.77;1.00;;;8.60;99.90;;;;;;5043694;28;20044;-61
2022/11/04 06:22:18;;;;;;;1.05;0.90;;;8.60;99.90;;;;;;5034268;28;20052;-61
2022/11/04 06:24:44;;;;;;;3.03;1.05;;;8.60;99.90;;;;;;5053503;28;20033;-62
2022/11/04 06:27:10;;;;;;;1.90;0.95;;;8.50;99.90;;;;;;5051832;28;20521;-62
2022/11/04 06:29:39;;;;;;;3.15;1.13;;;8.50;99.90;;;;;;5037683;28;20037;-62
2022/11/04 06:32:08;;;;;;;2.97;1.35;;;8.40;99.90;;;;;;5053718;28;20429;-61
2022/11/04 06:34:34;;;;;;;1.92;1.27;;;8.50;99.90;;;;;;5055484;28;20474;-61
2022/11/04 06:37:00;;;;;;;1.75;1.05;;;8.40;99.90;;;;;;5057137;28;20044;-61
2022/11/04 06:39:25;;;;;;;1.17;1.08;;;8.40;99.90;;;;;;5054166;28;20485;-61
2022/11/04 06:41:51;;;;;;;1.30;1.17;;;8.30;99.90;;;;;;5056076;28;20045;-61
2022/11/04 06:44:16;;;;;;;2.72;1.42;;;8.40;99.90;;;;;;5063049;28;20134;-61
2022/11/04 06:46:43;;;;;;;3.20;1.65;;;8.40;99.90;;;;;;5062085;28;20041;-62
2022/11/04 06:49:20;;;;;;;3.35;2.13;;;8.50;99.90;;;;;;5058322;28;20040;-62
2022/11/04 06:51:47;;;;;;;6.13;3.25;;;8.60;99.90;;;;;;5043603;28;20471;-62
2022/11/04 06:54:13;;;;;;;5.25;4.45;;;8.60;99.90;;;;;;5058681;28;20151;-62
2022/11/04 06:56:39;;;;;;;7.40;4.93;;;8.60;99.90;;;;;;5055482;28;20437;-61
2022/11/04 06:59:06;;;;;;;7.55;6.03;;;8.60;99.90;;;;;;5054589;28;20037;-62
2022/11/04 07:01:35;;;;;;;7.75;7.05;;;8.70;99.90;;;;;;5052143;28;20045;-62
2022/11/04 07:04:01;;;;;;;10.52;7.18;;;8.70;99.90;;;;;;5055463;28;20037;-62
2022/11/04 07:06:28;;;;;;;9.85;7.28;;;8.80;99.90;;;;;;5053005;28;21641;-62
2022/11/04 07:08:59;;;;;;;8.75;7.20;;;8.80;99.90;;;;;;5035370;28;20041;-60
2022/11/04 07:11:26;;;;;;;11.07;8.35;;;8.90;99.90;;;;;;5052405;28;20120;-61
2022/11/04 07:13:52;;;;;;;11.65;8.93;;;8.90;99.90;;;;;;5053906;28;20053;-62
2022/11/04 07:16:18;;;;;;;12.32;9.73;;;9.00;99.90;;;;;;5033602;28;20489;-61
2022/11/04 07:18:44;;;;;;;15.32;11.40;;;9.00;99.90;;;;;;5033084;28;20041;-62
2022/11/04 07:21:11;;;;;;;15.35;13.55;;;9.00;99.90;;;;;;5059730;28;20520;-61
2022/11/04 07:23:37;;;;;;;17.13;14.23;;;9.10;99.90;;;;;;5060562;28;20036;-61
2022/11/04 07:26:05;;;;;;;19.88;13.80;;;9.10;99.90;;;;;;5053538;28;20490;-62
2022/11/04 07:28:31;;;;;;;15.80;13.80;;;9.20;99.90;;;;;;5056406;28;20052;-62
2022/11/04 07:30:58;;;;;;;16.85;14.43;;;9.20;99.90;;;;;;5051516;28;20301;-62
2022/11/04 07:33:25;;;;;;;17.83;14.63;;;9.30;99.90;;;;;;5058637;28;20045;-62
2022/11/04 07:35:52;;;;;;;18.83;14.73;;;9.30;99.90;;;;;;5069180;28;20040;-62
2022/11/04 07:38:18;;;;;;;18.48;14.43;;;9.30;99.90;;;;;;5043706;28;20121;-62
2022/11/04 07:40:43;;;;;;;17.88;14.48;;;9.30;99.90;;;;;;5072882;28;20128;-62
2022/11/04 07:43:09;;;;;;;17.95;14.90;;;9.30;99.90;;;;;;5051388;28;20120;-62
2022/11/04 07:45:35;;;;;;;18.38;14.30;;;9.30;99.90;;;;;;5053601;28;20413;-62
2022/11/04 07:48:00;;;;;;;16.08;14.15;;;9.20;99.90;;;;;;5057619;28;20054;-61
2022/11/04 07:50:26;;;;;;;18.58;15.00;;;9.30;99.90;;;;;;5035717;28;20064;-60
2022/11/04 07:52:52;;;;;;;20.08;15.80;;;9.30;99.90;;;;;;5059681;28;20041;-62
2022/11/04 07:55:18;;;;;;;22.70;16.13;;;9.40;99.90;;;;;;5055150;28;20068;-61
2022/11/04 07:57:47;;;;;;;20.05;16.17;;;9.40;99.90;;;;;;5056075;28;20037;-61
2022/11/04 08:00:14;;;;;;;22.48;16.67;;;9.50;99.90;;;;;;5051457;28;20045;-62
2022/11/04 08:02:45;;;;;;;24.90;18.35;;;9.60;99.90;;;;;;5047985;28;21694;-61
2022/11/04 08:05:14;;;;;;;23.42;17.85;;;9.80;99.90;;;;;;5042820;28;20059;-62
2022/11/04 08:07:39;;;;;;;22.20;16.77;;;9.90;99.90;;;;;;5027642;28;20112;-62
2022/11/04 08:10:06;;;;;;;26.98;19.50;;;9.90;99.90;;;;;;5045101;28;20041;-62
2022/11/04 08:12:31;;;;;;;22.17;17.73;;;10.00;99.90;;;;;;5051920;28;20036;-62
2022/11/04 08:14:58;;;;;;;23.77;17.45;;;10.10;99.90;;;;;;5048070;28;20494;-62
2022/11/04 08:17:24;;;;;;;24.00;18.38;;;10.10;99.90;;;;;;5049508;28;20040;-63
2022/11/04 08:19:50;;;;;;;23.73;17.83;;;10.10;99.90;;;;;;5044246;28;20037;-63
2022/11/04 08:22:16;;;;;;;24.67;18.05;;;10.10;99.90;;;;;;5051464;28;20045;-58
2022/11/04 08:24:41;;;;;;;25.05;18.33;;;10.10;99.90;;;;;;5026848;28;20045;-63
2022/11/04 08:27:07;;;;;;;28.85;18.15;;;10.10;99.90;;;;;;5049453;28;20124;-62
2022/11/04 08:29:33;;;;;;;25.73;19.02;;;10.20;99.90;;;;;;5052349;28;20044;-63
2022/11/04 08:31:59;;;;;;;23.60;18.20;;;10.20;99.90;;;;;;5053905;28;20507;-62
2022/11/04 08:34:24;;;;;;;24.60;18.38;;;10.20;99.90;;;;;;5045799;28;20037;-63
2022/11/04 08:36:52;;;;;;;26.58;17.80;;;10.10;99.90;;;;;;5033030;28;20132;-63
2022/11/04 08:39:18;;;;;;;25.60;19.03;;;10.20;99.90;;;;;;5014267;28;20075;-63
2022/11/04 08:41:44;;;;;;;28.83;20.50;;;10.20;99.90;;;;;;5053961;28;20298;-63
2022/11/04 08:44:12;;;;;;;26.33;19.65;;;10.30;99.90;;;;;;5018340;28;20049;-63
2022/11/04 08:46:38;;;;;;;27.70;20.73;;;10.40;99.90;;;;;;5032539;28;20052;-63
2022/11/04 08:49:04;;;;;;;26.95;20.63;;;10.50;99.90;;;;;;5049193;28;20049;-63
2022/11/04 08:51:31;;;;;;;28.48;21.10;;;10.50;99.90;;;;;;5041008;28;20045;-63
2022/11/04 08:53:58;;;;;;;28.08;22.35;;;10.60;99.90;;;;;;5049481;28;20041;-63
2022/11/04 08:56:26;;;;;;;30.50;23.38;;;10.70;99.90;;;;;;5050336;28;20053;-63
2022/11/04 08:58:53;;;;;;;31.55;23.05;;;10.90;99.90;;;;;;5055963;28;20051;-63
2022/11/04 09:01:20;;;;;;;33.42;24.40;;;10.80;99.90;;;;;;5051372;28;20127;-63
2022/11/04 09:03:46;;;;;;;33.03;24.30;;;10.80;99.90;;;;;;5054467;28;20056;-63
2022/11/04 09:06:16;;;;;;;30.98;23.25;;;10.80;99.90;;;;;;5053872;28;20053;-63
2022/11/04 09:08:42;;;;;;;32.40;23.55;;;10.80;99.90;;;;;;5053159;28;20675;-63
2022/11/04 09:11:10;;;;;;;33.63;23.98;;;10.70;99.90;;;;;;5052002;28;20078;-63
2022/11/04 09:13:37;;;;;;;34.15;24.35;;;10.70;99.90;;;;;;5052649;28;20136;-63
2022/11/04 09:16:03;;;;;;;32.58;23.65;;;10.70;99.90;;;;;;5048509;28;20123;-63
2022/11/04 09:18:29;;;;;;;32.60;24.98;;;10.70;99.90;;;;;;5051079;28;20167;-63
2022/11/04 09:20:59;;;;;;;31.42;24.10;;;10.80;99.90;;;;;;5047022;28;20047;-63
2022/11/04 09:23:24;;;;;;;32.13;24.38;;;10.70;99.90;;;;;;5051589;28;20049;-63
2022/11/04 09:25:50;;;;;;;31.38;24.10;;;10.80;99.90;;;;;;5052359;28;20041;-62
2022/11/04 09:28:16;;;;;;;31.58;25.08;;;10.70;99.90;;;;;;5047126;28;20039;-63
2022/11/04 09:30:41;;;;;;;33.00;25.60;;;10.70;99.90;;;;;;5042061;28;20036;-62
2022/11/04 09:33:07;;;;;;;33.80;25.25;;;10.70;99.90;;;;;;5049156;28;20401;-64
2022/11/04 09:35:33;;;;;;;34.17;26.13;;;10.60;99.90;;;;;;5049324;28;20074;-63
2022/11/04 09:38:00;;;;;;;31.85;25.00;;;10.60;99.90;;;;;;5049945;28;20029;-63
2022/11/04 09:40:26;;;;;;;35.03;25.63;;;10.60;99.90;;;;;;5051257;28;20151;-63
2022/11/04 09:43:22;;;;;;;32.35;24.73;;;10.50;99.90;;;;;;5038830;28;20147;-62
2022/11/04 09:45:47;;;;;;;33.88;26.88;;;10.50;99.90;;;;;;5046243;28;20070;-63
2022/11/04 09:48:25;;;;;;;33.25;26.02;;;10.50;99.90;;;;;;5048574;28;20048;-63
2022/11/04 09:50:52;;;;;;;;;;;10.50;99.90;;;;;;5014478;28;20057;-62
2022/11/04 09:53:29;;;;;;;35.85;26.00;;;10.50;99.90;;;;;;5043168;28;19924;-62
2022/11/04 09:55:59;;;;;;;33.97;24.92;;;10.50;99.90;;;;;;5049723;28;20044;-62
2022/11/04 09:58:25;;;;;;;31.02;26.05;;;10.60;99.90;;;;;;5045787;28;20413;-63
2022/11/04 10:00:58;;;;;;;30.15;23.48;;;10.60;99.90;;;;;;5048060;28;20045;-62
2022/11/04 10:03:41;;;;;;;29.88;25.40;;;10.70;99.90;;;;;;5049648;28;20123;-62
2022/11/04 10:06:48;;;;;;;33.63;26.05;;;10.70;99.90;;;;;;5052900;28;20056;-62
2022/11/04 10:09:24;;;;;;;30.15;24.77;;;10.80;99.90;;;;;;5059299;28;20051;-61
2022/11/04 10:12:05;;;;;;;29.08;24.85;;;10.90;99.90;;;;;;5050940;28;20144;-62
2022/11/04 10:14:46;;;;;;;30.48;23.92;;;11.00;99.90;;;;;;5043339;28;20059;-61
2022/11/04 10:17:44;;;;;;;30.20;23.60;;;11.00;99.90;;;;;;5052788;28;20045;-62
2022/11/04 10:20:18;;;;;;;29.65;23.10;;;11.10;99.90;;;;;;5050818;28;20055;-58
2022/11/04 10:23:22;;;;;;;26.83;22.55;;;11.10;99.90;;;;;;5053695;28;20048;-61
2022/11/04 10:26:09;;;;;;;28.48;22.63;;;11.10;99.90;;;;;;5038325;28;20098;-59
2022/11/04 10:28:41;;;;;;;28.10;22.63;;;11.10;99.90;;;;;;5056338;28;20044;-60
2022/11/04 10:31:13;;;;;;;27.88;21.88;;;11.20;99.90;;;;;;5052817;28;20041;-57
2022/11/04 10:33:55;;;;;;;30.05;23.05;;;11.20;99.90;;;;;;5045327;28;20044;-59
2022/11/04 10:36:22;;;;;;;28.00;23.13;;;;;;;;;;5042235;28;20051;-60
2022/11/04 10:38:51;;;;;;;28.65;23.40;;;11.40;99.90;;;;;;5052409;28;20037;-59
2022/11/04 10:41:22;;;;;;;28.13;22.73;;;11.60;99.90;;;;;;5052279;28;20102;-60
2022/11/04 10:44:10;;;;;;;25.40;22.25;;;11.70;99.90;;;;;;5061459;28;20040;-59
2022/11/04 10:47:01;;;;;;;24.05;21.52;;;11.70;99.90;;;;;;5039626;28;20051;-60
2022/11/04 10:49:33;;;;;;;25.90;22.63;;;11.90;99.90;;;;;;5041121;28;20525;-60
2022/11/04 10:51:59;;;;;;;25.73;21.00;;;12.20;99.90;;;;;;5050389;28;20053;-61
2022/11/04 10:54:26;;;;;;;23.73;20.52;;;12.30;99.90;;;;;;5052116;28;20441;-61
2022/11/04 10:56:54;;;;;;;25.60;20.42;;;12.50;99.90;;;;;;5034218;28;20043;-61
2022/11/04 10:59:19;;;;;;;;;;;12.60;99.90;;;;;;5062189;28;20064;-61
2022/11/04 11:01:50;;;;;;;24.35;19.55;;;12.60;99.90;;;;;;5043723;28;20142;-62
2022/11/04 11:04:29;;;;;;;21.95;19.08;;;12.60;99.90;;;;;;5030397;28;20059;-63
2022/11/04 11:06:58;;;;;;;19.40;17.38;;;12.60;99.90;;;;;;5053206;28;20035;-62
2022/11/04 11:09:29;;;;;;;19.95;17.95;;;12.50;99.90;;;;;;5055726;28;20045;-62
2022/11/04 11:12:22;;;;;;;19.63;17.30;;;12.40;99.90;;;;;;5047493;28;20060;-62
2022/11/04 11:14:48;;;;;;;20.83;17.20;;;12.30;99.90;;;;;;5041401;28;20151;-62
2022/11/04 11:17:14;;;;;;;19.08;16.88;;;12.40;99.90;;;;;;5032278;28;20068;-62
2022/11/04 11:20:04;;;;;;;19.25;17.38;;;12.40;99.90;;;;;;5052638;28;20072;-62
2022/11/04 11:22:36;;;;;;;21.50;17.55;;;12.40;99.90;;;;;;5048964;28;20395;-62
2022/11/04 11:25:25;;;;;;;22.90;17.63;;;12.40;99.90;;;;;;5034453;28;20409;-62
2022/11/04 11:28:03;;;;;;;25.10;18.73;;;12.40;99.90;;;;;;5054620;28;20120;-62
2022/11/04 11:30:32;;;;;;;22.08;17.38;;;12.60;99.90;;;;;;5046817;28;20407;-62
2022/11/04 11:33:03;;;;;;;19.13;17.00;;;12.50;99.90;;;;;;5056513;28;20142;-61
2022/11/04 11:35:40;;;;;;;21.55;15.27;;;12.40;99.90;;;;;;5053313;28;20071;-62
2022/11/04 11:38:19;;;;;;;18.00;16.10;;;12.40;99.90;;;;;;5056029;28;20498;-62
2022/11/04 11:40:46;;;;;;;18.20;16.05;;;12.40;99.90;;;;;;5055451;28;20506;-62
2022/11/04 11:43:27;;;;;;;18.65;16.60;;;12.50;99.90;;;;;;5055818;28;20092;-62
2022/11/04 11:45:56;;;;;;;19.13;16.95;;;12.60;99.90;;;;;;5053494;28;20061;-62
2022/11/04 11:48:38;;;;;;;20.67;16.65;;;12.70;99.90;;;;;;5033278;28;20044;-62
2022/11/04 11:51:05;;;;;;;18.13;16.27;;;12.80;99.90;;;;;;5036605;28;20055;-62
2022/11/04 11:53:36;;;;;;;19.67;17.58;;;12.80;99.90;;;;;;5059554;28;20044;-62
2022/11/04 11:56:14;;;;;;;19.55;17.38;;;12.70;99.90;;;;;;5054042;28;20068;-62
2022/11/04 11:59:06;;;;;;;19.17;17.20;;;12.70;99.90;;;;;;5051854;28;20094;-61
2022/11/04 12:01:45;;;;;;;19.17;17.27;;;12.60;99.90;;;;;;4913071;22;20663;-61
2022/11/04 12:04:12;;;;;;;20.67;18.13;;;12.60;99.90;;;;;;5111032;27;20035;-61
2022/11/04 12:07:03;;;;;;;19.35;17.27;;;12.70;99.90;;;;;;5113490;27;20051;-61
2022/11/04 12:09:37;;;;;;;21.38;17.95;;;12.60;99.90;;;;;;5113131;27;20066;-61
2022/11/04 12:12:15;;;;;;;19.35;17.45;;;12.60;99.90;;;;;;5101812;28;20369;-61
2022/11/04 12:14:46;;;;;;;;;;;12.70;99.90;;;;;;5115485;27;20043;-62
2022/11/04 12:17:37;;;;;;;18.67;16.75;;;12.70;99.90;;;;;;5125835;27;19919;-61
2022/11/04 12:20:14;;;;;;;18.10;16.20;;;12.60;99.90;;;;;;5113776;27;20040;-62
2022/11/04 12:23:10;;;;;;;16.38;14.63;;;12.70;99.90;;;;;;5108393;27;20106;-61
2022/11/04 12:26:05;;;;;;;16.10;14.27;;;12.70;99.90;;;;;;5090365;27;20075;-62
2022/11/04 12:28:58;;;;;;;15.80;13.85;;;12.70;99.90;;;;;;5110048;27;20144;-62
2022/11/04 12:31:38;;;;;;;18.08;16.08;;;12.70;99.90;;;;;;5088561;28;20373;-61
2022/11/04 12:34:33;;;;;;;18.67;15.82;;;12.80;99.90;;;;;;5107334;27;20040;-62
2022/11/04 12:37:30;;;;;;;19.25;15.85;;;12.80;99.90;;;;;;5088368;27;20055;-62
2022/11/04 12:40:23;;;;;;;15.60;13.95;;;12.80;99.90;;;;;;5091101;28;20055;-61
2022/11/04 12:42:58;;;;;;;16.50;14.38;;;12.90;99.90;;;;;;5105021;28;20043;-63
2022/11/04 12:45:47;;;;;;;16.75;14.63;;;12.90;99.90;;;;;;5101825;27;20386;-60
2022/11/04 12:48:39;;;;;;;17.50;14.48;;;13.10;99.90;;;;;;5105969;28;20073;-60
2022/11/04 12:51:15;;;;;;;16.42;14.38;;;13.20;99.90;;;;;;5066806;27;20051;-61
2022/11/04 12:54:07;;;;;;;17.38;15.50;;;13.00;99.90;;;;;;5108513;27;20089;-61
2022/11/04 12:56:38;;;;;;;16.40;14.55;;;12.80;99.90;;;;;;5102478;27;20063;-60
2022/11/04 12:59:22;;;;;;;16.52;13.65;;;12.90;99.90;;;;;;5103973;28;20035;-61
2022/11/04 13:01:57;;;;;;;17.25;13.70;;;12.80;99.90;;;;;;5084490;28;20070;-61
2022/11/04 13:04:34;;;;;;;15.40;13.82;;;12.80;99.90;;;;;;5084393;28;20063;-62
2022/11/04 13:07:16;;;;;;;15.63;13.93;;;12.90;99.90;;;;;;5085019;28;20549;-62
2022/11/04 13:09:53;;;;;;;17.48;14.23;;;12.80;99.90;;;;;;5100049;28;20047;-61
2022/11/04 13:12:35;;;;;;;16.27;14.10;;;12.70;99.90;;;;;;5096623;27;20512;-62
2022/11/04 13:15:12;;;;;;;17.77;15.07;;;12.60;99.90;;;;;;5102724;27;20066;-60
2022/11/04 13:17:40;;;;;;;16.98;14.88;;;12.70;99.90;;;;;;5095607;28;20051;-59
2022/11/04 13:20:12;;;;;;;;;;;12.90;99.90;;;;;;5100209;27;20043;-61
2022/11/04 13:22:41;;;;;;;14.55;13.05;;;13.00;99.90;;;;;;5118773;27;19927;-60
2022/11/04 13:25:24;;;;;;;13.15;11.75;;;13.10;99.90;;;;;;5115878;27;20063;-58
2022/11/04 13:27:50;;;;;;;7.88;5.05;;;13.10;99.90;;;;;;5118546;27;20314;-60
2022/11/04 13:30:26;;;;;;;5.22;1.60;;;12.80;99.90;;;;;;5126577;27;20046;-60
2022/11/04 13:33:16;;;;;;;2.95;1.20;;;12.10;99.90;;;;;;5109413;27;20127;-60
2022/11/04 13:35:45;;;;;;;3.97;1.25;;;11.70;99.90;;;;;;5112742;27;20055;-60
2022/11/04 13:38:19;;;;;;;7.00;1.70;;;11.10;99.90;;;;;;5117225;27;20107;-61
2022/11/04 13:41:00;;;;;;;6.05;1.85;;;11.00;99.90;;;;;;5113355;27;20561;-61
2022/11/04 13:43:40;;;;;;;4.95;1.30;;;10.90;99.90;;;;;;5108571;28;20397;-60